sensor_id;sensor_type;location;lat;lon;timestamp;pressure;altitude;pressure_sealevel;temperature;humidity
23619;BME280;18207;32.078;34.818;2023-04-27T00:01:50;100630.13;;;26.00;40.60
23619;BME280;18207;32.078;34.818;2023-04-27T00:04:20;100630.13;;;26.00;40.63
23619;BME280;18207;32.078;34.818;2023-04-27T00:06:50;100623.69;;;26.00;40.46
23619;BME280;18207;32.078;34.818;2023-04-27T00:09:23;100624.50;;;26.00;40.44
23619;BME280;18207;32.078;34.818;2023-04-27T00:11:54;100623.69;;;26.00;40.65
23619;BME280;18207;32.078;34.818;2023-04-27T00:14:24;100618.06;;;26.00;40.72
23619;BME280;18207;32.078;34.818;2023-04-27T00:16:55;100622.88;;;25.99;40.90
23619;BME280;18207;32.078;34.818;2023-04-27T00:19:26;100618.44;;;25.98;40.61
23619;BME280;18207;32.078;34.818;2023-04-27T00:21:57;100612.81;;;25.98;40.56
23619;BME280;18207;32.078;34.818;2023-04-27T00:24:30;100621.28;;;25.98;40.72
23619;BME280;18207;32.078;34.818;2023-04-27T00:27:00;100614.00;;;25.98;40.71
23619;BME280;18207;32.078;34.818;2023-04-27T00:29:30;100617.19;;;25.96;40.50
23619;BME280;18207;32.078;34.818;2023-04-27T00:32:00;100616.38;;;25.96;40.83
23619;BME280;18207;32.078;34.818;2023-04-27T00:34:31;100607.09;;;25.95;40.59
23619;BME280;18207;32.078;34.818;2023-04-27T00:37:01;100612.72;;;25.95;40.67
23619;BME280;18207;32.078;34.818;2023-04-27T00:39:34;100607.09;;;25.95;40.84
23619;BME280;18207;32.078;34.818;2023-04-27T00:42:04;100598.22;;;25.93;40.67
23619;BME280;18207;32.078;34.818;2023-04-27T00:44:38;100605.84;;;25.93;40.99
23619;BME280;18207;32.078;34.818;2023-04-27T00:47:09;100600.22;;;25.93;40.77
23619;BME280;18207;32.078;34.818;2023-04-27T00:49:40;100608.22;;;25.91;40.70
23619;BME280;18207;32.078;34.818;2023-04-27T00:52:10;100600.97;;;25.90;40.63
23619;BME280;18207;32.078;34.818;2023-04-27T00:54:42;100597.34;;;25.89;40.63
23619;BME280;18207;32.078;34.818;2023-04-27T00:57:12;100597.72;;;25.88;40.78
23619;BME280;18207;32.078;34.818;2023-04-27T00:59:43;100599.72;;;25.87;40.71
23619;BME280;18207;32.078;34.818;2023-04-27T01:02:13;100591.66;;;25.86;40.67
23619;BME280;18207;32.078;34.818;2023-04-27T01:04:44;100595.66;;;25.85;40.71
23619;BME280;18207;32.078;34.818;2023-04-27T01:07:14;100591.59;;;25.82;40.59
23619;BME280;18207;32.078;34.818;2023-04-27T01:09:47;100593.97;;;25.80;40.67
23619;BME280;18207;32.078;34.818;2023-04-27T01:12:17;100589.91;;;25.78;40.64
23619;BME280;18207;32.078;34.818;2023-04-27T01:14:47;100588.28;;;25.77;40.80
23619;BME280;18207;32.078;34.818;2023-04-27T01:17:17;100586.63;;;25.76;40.66
23619;BME280;18207;32.078;34.818;2023-04-27T01:19:48;100582.16;;;25.75;40.71
23619;BME280;18207;32.078;34.818;2023-04-27T01:22:18;100580.53;;;25.74;40.49
23619;BME280;18207;32.078;34.818;2023-04-27T01:24:50;100582.56;;;25.73;40.78
23619;BME280;18207;32.078;34.818;2023-04-27T01:27:21;100568.84;;;25.72;40.59
23619;BME280;18207;32.078;34.818;2023-04-27T01:29:50;100568.03;;;25.71;41.28
23619;BME280;18207;32.078;34.818;2023-04-27T01:32:21;100567.59;;;25.69;40.61
23619;BME280;18207;32.078;34.818;2023-04-27T01:34:51;100562.34;;;25.68;40.78
23619;BME280;18207;32.078;34.818;2023-04-27T01:37:22;100569.94;;;25.67;40.53
23619;BME280;18207;32.078;34.818;2023-04-27T01:39:54;100565.50;;;25.66;40.53
23619;BME280;18207;32.078;34.818;2023-04-27T01:42:23;100565.09;;;25.64;40.34
23619;BME280;18207;32.078;34.818;2023-04-27T01:44:53;100567.47;;;25.62;40.50
23619;BME280;18207;32.078;34.818;2023-04-27T01:47:23;100559.38;;;25.61;40.50
23619;BME280;18207;32.078;34.818;2023-04-27T01:49:53;100563.75;;;25.58;40.57
23619;BME280;18207;32.078;34.818;2023-04-27T01:52:24;100560.13;;;25.58;40.53
23619;BME280;18207;32.078;34.818;2023-04-27T01:54:55;100572.59;;;25.57;40.54
23619;BME280;18207;32.078;34.818;2023-04-27T01:57:26;100570.94;;;25.56;40.51
23619;BME280;18207;32.078;34.818;2023-04-27T01:59:56;100564.09;;;25.53;40.28
23619;BME280;18207;32.078;34.818;2023-04-27T02:02:26;100555.63;;;25.53;40.52
23619;BME280;18207;32.078;34.818;2023-04-27T02:04:57;100556.00;;;25.52;40.66
23619;BME280;18207;32.078;34.818;2023-04-27T02:07:26;100558.38;;;25.50;40.41
23619;BME280;18207;32.078;34.818;2023-04-27T02:09:58;100555.13;;;25.48;40.55
23619;BME280;18207;32.078;34.818;2023-04-27T02:12:28;100549.84;;;25.46;40.53
23619;BME280;18207;32.078;34.818;2023-04-27T02:14:58;100551.06;;;25.45;40.44
23619;BME280;18207;32.078;34.818;2023-04-27T02:17:28;100542.97;;;25.44;40.62
23619;BME280;18207;32.078;34.818;2023-04-27T02:20:01;100544.16;;;25.43;40.83
23619;BME280;18207;32.078;34.818;2023-04-27T02:22:32;100532.09;;;25.42;40.75
23619;BME280;18207;32.078;34.818;2023-04-27T02:25:05;100535.28;;;25.41;40.63
23619;BME280;18207;32.078;34.818;2023-04-27T02:27:36;100532.47;;;25.41;40.51
23619;BME280;18207;32.078;34.818;2023-04-27T02:30:09;100526.03;;;25.40;40.30
23619;BME280;18207;32.078;34.818;2023-04-27T02:32:40;100530.03;;;25.39;40.20
23619;BME280;18207;32.078;34.818;2023-04-27T02:35:11;100526.41;;;25.39;40.42
23619;BME280;18207;32.078;34.818;2023-04-27T02:37:41;100530.41;;;25.38;40.64
23619;BME280;18207;32.078;34.818;2023-04-27T02:40:13;100528.78;;;25.37;40.32
23619;BME280;18207;32.078;34.818;2023-04-27T02:42:43;100527.16;;;25.36;40.71
23619;BME280;18207;32.078;34.818;2023-04-27T02:45:20;100527.94;;;25.36;40.60
23619;BME280;18207;32.078;34.818;2023-04-27T02:47:50;100517.09;;;25.35;40.56
23619;BME280;18207;32.078;34.818;2023-04-27T02:50:21;100525.06;;;25.33;40.41
23619;BME280;18207;32.078;34.818;2023-04-27T02:52:51;100513.75;;;25.29;40.59
23619;BME280;18207;32.078;34.818;2023-04-27T02:55:23;100523.31;;;25.25;40.39
23619;BME280;18207;32.078;34.818;2023-04-27T02:57:54;100509.13;;;25.18;40.33
23619;BME280;18207;32.078;34.818;2023-04-27T03:00:25;100519.47;;;25.14;40.34
23619;BME280;18207;32.078;34.818;2023-04-27T03:02:55;100523.06;;;25.11;40.22
23619;BME280;18207;32.078;34.818;2023-04-27T03:05:25;100520.13;;;25.07;40.32
23619;BME280;18207;32.078;34.818;2023-04-27T03:07:59;100523.31;;;25.06;40.47
23619;BME280;18207;32.078;34.818;2023-04-27T03:10:32;100521.69;;;25.05;40.87
23619;BME280;18207;32.078;34.818;2023-04-27T03:13:02;100520.06;;;25.04;40.89
23619;BME280;18207;32.078;34.818;2023-04-27T03:15:35;100520.06;;;25.04;40.58
23619;BME280;18207;32.078;34.818;2023-04-27T03:18:05;100522.88;;;25.04;40.68
23619;BME280;18207;32.078;34.818;2023-04-27T03:20:36;100524.88;;;25.04;40.69
23619;BME280;18207;32.078;34.818;2023-04-27T03:23:06;100531.31;;;25.04;40.76
23619;BME280;18207;32.078;34.818;2023-04-27T03:25:38;100531.31;;;25.04;40.72
23619;BME280;18207;32.078;34.818;2023-04-27T03:28:08;100544.19;;;25.05;40.78
23619;BME280;18207;32.078;34.818;2023-04-27T03:30:39;100544.56;;;25.04;40.51
23619;BME280;18207;32.078;34.818;2023-04-27T03:33:09;100555.81;;;25.04;40.55
23619;BME280;18207;32.078;34.818;2023-04-27T03:35:39;100560.97;;;25.02;40.65
23619;BME280;18207;32.078;34.818;2023-04-27T03:38:10;100562.09;;;24.97;40.37
23619;BME280;18207;32.078;34.818;2023-04-27T03:40:42;100551.56;;;24.94;40.23
23619;BME280;18207;32.078;34.818;2023-04-27T03:43:12;100548.25;;;24.89;40.40
23619;BME280;18207;32.078;34.818;2023-04-27T03:45:42;100539.28;;;24.83;40.50
23619;BME280;18207;32.078;34.818;2023-04-27T03:48:13;100535.59;;;24.79;40.28
23619;BME280;18207;32.078;34.818;2023-04-27T03:50:44;100537.97;;;24.77;40.35
23619;BME280;18207;32.078;34.818;2023-04-27T03:53:14;100528.28;;;24.75;40.40
23619;BME280;18207;32.078;34.818;2023-04-27T03:55:46;100543.13;;;24.75;40.57
23619;BME280;18207;32.078;34.818;2023-04-27T03:58:17;100542.34;;;24.75;40.59
23619;BME280;18207;32.078;34.818;2023-04-27T04:00:47;100545.16;;;24.75;40.79
23619;BME280;18207;32.078;34.818;2023-04-27T04:03:17;100550.78;;;24.75;40.62
23619;BME280;18207;32.078;34.818;2023-04-27T04:05:48;100547.56;;;24.76;40.76
23619;BME280;18207;32.078;34.818;2023-04-27T04:08:18;100546.41;;;24.77;40.57
23619;BME280;18207;32.078;34.818;2023-04-27T04:10:49;100553.28;;;24.80;40.50
23619;BME280;18207;32.078;34.818;2023-04-27T04:13:20;100550.47;;;24.80;40.50
23619;BME280;18207;32.078;34.818;2023-04-27T04:15:59;100552.09;;;24.81;40.81
23619;BME280;18207;32.078;34.818;2023-04-27T04:18:29;100546.47;;;24.81;40.77
23619;BME280;18207;32.078;34.818;2023-04-27T04:21:00;100551.72;;;24.82;40.53
23619;BME280;18207;32.078;34.818;2023-04-27T04:23:30;100554.19;;;24.84;40.56
23619;BME280;18207;32.078;34.818;2023-04-27T04:26:02;100560.25;;;24.86;40.55
23619;BME280;18207;32.078;34.818;2023-04-27T04:28:32;100561.50;;;24.88;40.52
23619;BME280;18207;32.078;34.818;2023-04-27T04:31:03;100561.13;;;24.90;40.79
23619;BME280;18207;32.078;34.818;2023-04-27T04:33:35;100566.00;;;24.93;40.45
23619;BME280;18207;32.078;34.818;2023-04-27T04:36:06;100566.09;;;24.96;40.41
23619;BME280;18207;32.078;34.818;2023-04-27T04:38:36;100567.34;;;24.99;40.67
23619;BME280;18207;32.078;34.818;2023-04-27T04:41:08;100574.66;;;25.03;40.57
23619;BME280;18207;32.078;34.818;2023-04-27T04:43:39;100568.31;;;25.06;40.71
23619;BME280;18207;32.078;34.818;2023-04-27T04:46:09;100568.38;;;25.09;40.38
23619;BME280;18207;32.078;34.818;2023-04-27T04:48:39;100574.09;;;25.13;40.56
23619;BME280;18207;32.078;34.818;2023-04-27T04:51:09;100566.19;;;25.18;40.67
23619;BME280;18207;32.078;34.818;2023-04-27T04:53:47;100568.72;;;25.23;40.71
23619;BME280;18207;32.078;34.818;2023-04-27T04:56:19;100564.78;;;25.28;40.54
23619;BME280;18207;32.078;34.818;2023-04-27T04:58:48;100560.84;;;25.32;40.41
23619;BME280;18207;32.078;34.818;2023-04-27T05:01:18;100554.50;;;25.35;40.49
23619;BME280;18207;32.078;34.818;2023-04-27T05:03:49;100560.19;;;25.39;40.43
23619;BME280;18207;32.078;34.818;2023-04-27T05:06:19;100561.03;;;25.43;40.37
23619;BME280;18207;32.078;34.818;2023-04-27T05:08:49;100559.13;;;25.47;40.27
23619;BME280;18207;32.078;34.818;2023-04-27T05:11:21;100559.63;;;25.52;40.20
23619;BME280;18207;32.078;34.818;2023-04-27T05:13:51;100556.06;;;25.55;40.30
23619;BME280;18207;32.078;34.818;2023-04-27T05:16:22;100560.59;;;25.60;40.23
23619;BME280;18207;32.078;34.818;2023-04-27T05:18:53;100561.06;;;25.65;40.48
23619;BME280;18207;32.078;34.818;2023-04-27T05:21:23;100562.41;;;25.71;40.01
23619;BME280;18207;32.078;34.818;2023-04-27T05:23:53;100564.09;;;25.76;40.07
23619;BME280;18207;32.078;34.818;2023-04-27T05:26:24;100575.50;;;25.83;40.10
23619;BME280;18207;32.078;34.818;2023-04-27T05:28:55;100568.38;;;25.89;40.26
23619;BME280;18207;32.078;34.818;2023-04-27T05:31:25;100565.69;;;25.96;40.08
23619;BME280;18207;32.078;34.818;2023-04-27T05:33:55;100562.97;;;26.02;40.05
23619;BME280;18207;32.078;34.818;2023-04-27T05:36:26;100568.72;;;26.09;40.08
23619;BME280;18207;32.078;34.818;2023-04-27T05:38:56;100573.31;;;26.17;40.08
23619;BME280;18207;32.078;34.818;2023-04-27T05:41:29;100577.03;;;26.25;39.87
23619;BME280;18207;32.078;34.818;2023-04-27T05:43:59;100581.19;;;26.31;39.98
23619;BME280;18207;32.078;34.818;2023-04-27T05:46:29;100581.28;;;26.38;39.72
23619;BME280;18207;32.078;34.818;2023-04-27T05:48:59;100578.59;;;26.45;39.48
23619;BME280;18207;32.078;34.818;2023-04-27T05:51:29;100582.72;;;26.51;39.46
23619;BME280;18207;32.078;34.818;2023-04-27T05:54:00;100560.66;;;26.56;39.39
23619;BME280;18207;32.078;34.818;2023-04-27T05:56:32;100566.41;;;26.63;39.34
23619;BME280;18207;32.078;34.818;2023-04-27T05:59:04;100572.13;;;26.70;39.17
23619;BME280;18207;32.078;34.818;2023-04-27T06:01:35;100560.53;;;26.75;39.18
23619;BME280;18207;32.078;34.818;2023-04-27T06:04:05;100560.63;;;26.82;38.97
23619;BME280;18207;32.078;34.818;2023-04-27T06:06:36;100555.47;;;26.87;38.94
23619;BME280;18207;32.078;34.818;2023-04-27T06:09:06;100559.19;;;26.95;38.75
23619;BME280;18207;32.078;34.818;2023-04-27T06:11:37;100551.22;;;27.00;38.40
23619;BME280;18207;32.078;34.818;2023-04-27T06:14:07;100549.25;;;27.04;38.38
23619;BME280;18207;32.078;34.818;2023-04-27T06:16:38;100553.38;;;27.10;38.40
23619;BME280;18207;32.078;34.818;2023-04-27T06:19:09;100548.56;;;27.14;38.19
23619;BME280;18207;32.078;34.818;2023-04-27T06:21:39;100552.28;;;27.18;37.93
23619;BME280;18207;32.078;34.818;2023-04-27T06:24:09;100564.03;;;27.24;37.86
23619;BME280;18207;32.078;34.818;2023-04-27T06:26:41;100555.19;;;27.29;37.74
23619;BME280;18207;32.078;34.818;2023-04-27T06:29:11;100553.69;;;27.35;37.77
23619;BME280;18207;32.078;34.818;2023-04-27T06:31:41;100549.69;;;27.39;37.73
23619;BME280;18207;32.078;34.818;2023-04-27T06:34:11;100557.84;;;27.48;37.60
23619;BME280;18207;32.078;34.818;2023-04-27T06:36:41;100558.31;;;27.53;37.57
23619;BME280;18207;32.078;34.818;2023-04-27T06:39:11;100562.41;;;27.59;37.21
23619;BME280;18207;32.078;34.818;2023-04-27T06:41:43;100557.25;;;27.65;37.01
23619;BME280;18207;32.078;34.818;2023-04-27T06:44:13;100553.63;;;27.68;36.86
23619;BME280;18207;32.078;34.818;2023-04-27T06:46:43;100559.75;;;27.73;37.00
23619;BME280;18207;32.078;34.818;2023-04-27T06:49:13;100562.22;;;27.78;36.64
23619;BME280;18207;32.078;34.818;2023-04-27T06:51:43;100563.88;;;27.82;36.51
23619;BME280;18207;32.078;34.818;2023-04-27T06:54:13;100563.53;;;27.87;36.37
23619;BME280;18207;32.078;34.818;2023-04-27T06:56:45;100555.50;;;27.93;36.33
23619;BME280;18207;32.078;34.818;2023-04-27T06:59:16;100545.84;;;27.97;36.40
23619;BME280;18207;32.078;34.818;2023-04-27T07:01:46;100544.31;;;28.03;35.94
23619;BME280;18207;32.078;34.818;2023-04-27T07:04:16;100545.97;;;28.08;35.93
23619;BME280;18207;32.078;34.818;2023-04-27T07:06:46;100545.59;;;28.13;36.19
23619;BME280;18207;32.078;34.818;2023-04-27T07:09:16;100543.59;;;28.17;35.90
23619;BME280;18207;32.078;34.818;2023-04-27T07:11:56;100539.22;;;28.23;35.87
23619;BME280;18207;32.078;34.818;2023-04-27T07:14:28;100540.50;;;28.29;35.69
23619;BME280;18207;32.078;34.818;2023-04-27T07:17:00;100540.91;;;28.34;35.92
23619;BME280;18207;32.078;34.818;2023-04-27T07:19:31;100537.34;;;28.41;36.05
23619;BME280;18207;32.078;34.818;2023-04-27T07:22:01;100534.94;;;28.46;36.14
23619;BME280;18207;32.078;34.818;2023-04-27T07:24:31;100532.19;;;28.53;36.21
23619;BME280;18207;32.078;34.818;2023-04-27T07:27:03;100526.56;;;28.60;36.22
23619;BME280;18207;32.078;34.818;2023-04-27T07:29:34;100527.81;;;28.66;35.95
23619;BME280;18207;32.078;34.818;2023-04-27T07:32:06;100513.72;;;28.73;36.19
23619;BME280;18207;32.078;34.818;2023-04-27T07:34:35;100518.97;;;28.78;36.25
23619;BME280;18207;32.078;34.818;2023-04-27T07:37:19;100523.91;;;28.84;35.92
23619;BME280;18207;32.078;34.818;2023-04-27T07:39:49;100527.16;;;28.90;36.01
23619;BME280;18207;32.078;34.818;2023-04-27T07:42:22;100522.72;;;28.96;35.56
23619;BME280;18207;32.078;34.818;2023-04-27T07:44:52;100521.53;;;29.00;35.52
23619;BME280;18207;32.078;34.818;2023-04-27T07:47:23;100523.59;;;29.07;35.73
23619;BME280;18207;32.078;34.818;2023-04-27T07:49:53;100522.38;;;29.11;35.32
23619;BME280;18207;32.078;34.818;2023-04-27T07:52:23;100525.66;;;29.17;35.80
23619;BME280;18207;32.078;34.818;2023-04-27T07:54:53;100525.28;;;29.22;35.55
23619;BME280;18207;32.078;34.818;2023-04-27T07:57:26;100528.91;;;29.26;35.38
23619;BME280;18207;32.078;34.818;2023-04-27T07:59:56;100520.41;;;29.29;35.31
23619;BME280;18207;32.078;34.818;2023-04-27T08:02:27;100527.34;;;29.35;35.53
23619;BME280;18207;32.078;34.818;2023-04-27T08:04:58;100528.16;;;29.39;35.23
23619;BME280;18207;32.078;34.818;2023-04-27T08:07:30;100537.50;;;29.43;35.11
23619;BME280;18207;32.078;34.818;2023-04-27T08:10:07;100537.09;;;29.48;35.14
23619;BME280;18207;32.078;34.818;2023-04-27T08:12:39;100534.28;;;29.52;35.05
23619;BME280;18207;32.078;34.818;2023-04-27T08:15:10;100531.03;;;29.56;35.13
23619;BME280;18207;32.078;34.818;2023-04-27T08:17:41;100534.72;;;29.60;34.58
23619;BME280;18207;32.078;34.818;2023-04-27T08:20:12;100526.22;;;29.64;35.11
23619;BME280;18207;32.078;34.818;2023-04-27T08:22:42;100533.50;;;29.68;35.08
23619;BME280;18207;32.078;34.818;2023-04-27T08:25:12;100527.84;;;29.72;34.90
23619;BME280;18207;32.078;34.818;2023-04-27T08:27:45;100519.34;;;29.75;34.76
23619;BME280;18207;32.078;34.818;2023-04-27T08:30:15;100518.91;;;29.77;34.29
23619;BME280;18207;32.078;34.818;2023-04-27T08:32:45;100506.00;;;29.79;34.57
23619;BME280;18207;32.078;34.818;2023-04-27T08:35:15;100512.03;;;29.81;34.29
23619;BME280;18207;32.078;34.818;2023-04-27T08:37:46;100505.16;;;29.82;34.23
23619;BME280;18207;32.078;34.818;2023-04-27T08:40:16;100511.66;;;29.86;34.45
23619;BME280;18207;32.078;34.818;2023-04-27T08:42:57;100495.84;;;29.89;34.21
23619;BME280;18207;32.078;34.818;2023-04-27T08:45:28;100497.47;;;29.90;34.39
23619;BME280;18207;32.078;34.818;2023-04-27T08:47:58;100487.34;;;29.92;34.17
23619;BME280;18207;32.078;34.818;2023-04-27T08:50:28;100490.63;;;29.94;33.97
23619;BME280;18207;32.078;34.818;2023-04-27T08:52:58;100488.63;;;29.98;34.06
23619;BME280;18207;32.078;34.818;2023-04-27T08:55:28;100487.78;;;30.01;34.20
23619;BME280;18207;32.078;34.818;2023-04-27T08:58:01;100492.66;;;30.04;33.94
23619;BME280;18207;32.078;34.818;2023-04-27T09:00:38;100491.44;;;30.09;34.14
23619;BME280;18207;32.078;34.818;2023-04-27T09:03:21;100480.50;;;30.11;34.27
23619;BME280;18207;32.078;34.818;2023-04-27T09:05:52;100482.13;;;30.12;33.87
23619;BME280;18207;32.078;34.818;2023-04-27T09:08:43;100481.69;;;30.13;33.91
23619;BME280;18207;32.078;34.818;2023-04-27T09:11:14;100486.56;;;30.16;33.88
23619;BME280;18207;32.078;34.818;2023-04-27T09:13:47;100471.97;;;30.18;33.94
23619;BME280;18207;32.078;34.818;2023-04-27T09:16:23;100474.00;;;30.21;33.61
23619;BME280;18207;32.078;34.818;2023-04-27T09:18:56;100478.03;;;30.23;33.95
23619;BME280;18207;32.078;34.818;2023-04-27T09:21:28;100474.41;;;30.26;33.75
23619;BME280;18207;32.078;34.818;2023-04-27T09:24:09;100466.28;;;30.28;33.56
23619;BME280;18207;32.078;34.818;2023-04-27T09:26:40;100460.63;;;30.28;33.25
23619;BME280;18207;32.078;34.818;2023-04-27T09:29:12;100459.00;;;30.31;33.14
23619;BME280;18207;32.078;34.818;2023-04-27T09:31:43;100450.88;;;30.33;33.14
23619;BME280;18207;32.078;34.818;2023-04-27T09:34:13;100458.97;;;30.34;33.14
23619;BME280;18207;32.078;34.818;2023-04-27T09:36:44;100446.41;;;30.35;33.43
23619;BME280;18207;32.078;34.818;2023-04-27T09:39:17;100454.13;;;30.38;33.13
23619;BME280;18207;32.078;34.818;2023-04-27T09:41:48;100441.56;;;30.39;33.51
23619;BME280;18207;32.078;34.818;2023-04-27T09:44:20;100442.75;;;30.42;33.30
23619;BME280;18207;32.078;34.818;2023-04-27T09:46:52;100445.19;;;30.43;33.35
23619;BME280;18207;32.078;34.818;2023-04-27T09:49:23;100450.47;;;30.44;33.17
23619;BME280;18207;32.078;34.818;2023-04-27T09:51:55;100454.88;;;30.45;32.75
23619;BME280;18207;32.078;34.818;2023-04-27T09:54:31;100448.81;;;30.47;32.84
23619;BME280;18207;32.078;34.818;2023-04-27T09:57:16;100455.28;;;30.47;32.80
23619;BME280;18207;32.078;34.818;2023-04-27T10:00:25;100446.78;;;30.47;33.08
23619;BME280;18207;32.078;34.818;2023-04-27T10:03:21;100443.16;;;30.47;32.60
23619;BME280;18207;32.078;34.818;2023-04-27T10:06:44;100442.31;;;30.46;32.82
23619;BME280;18207;32.078;34.818;2023-04-27T10:09:20;100439.50;;;30.46;32.96
23619;BME280;18207;32.078;34.818;2023-04-27T10:11:53;100443.94;;;30.47;32.36
23619;BME280;18207;32.078;34.818;2023-04-27T10:14:24;100437.09;;;30.48;32.38
23619;BME280;18207;32.078;34.818;2023-04-27T10:16:59;100443.16;;;30.50;32.38
23619;BME280;18207;32.078;34.818;2023-04-27T10:19:30;100437.06;;;30.52;32.70
23619;BME280;18207;32.078;34.818;2023-04-27T10:22:01;100443.16;;;30.54;32.38
23619;BME280;18207;32.078;34.818;2023-04-27T10:24:34;100437.06;;;30.55;32.20
23619;BME280;18207;32.078;34.818;2023-04-27T10:27:07;100433.81;;;30.57;32.13
23619;BME280;18207;32.078;34.818;2023-04-27T10:29:41;100429.78;;;30.58;31.72
23619;BME280;18207;32.078;34.818;2023-04-27T10:32:20;100425.72;;;30.59;32.11
23619;BME280;18207;32.078;34.818;2023-04-27T10:35:02;100430.97;;;30.60;32.08
23619;BME280;18207;32.078;34.818;2023-04-27T10:37:43;100432.59;;;30.61;31.61
23619;BME280;18207;32.078;34.818;2023-04-27T10:40:15;100435.00;;;30.63;32.01
23619;BME280;18207;32.078;34.818;2023-04-27T10:42:46;100430.16;;;30.63;32.06
23619;BME280;18207;32.078;34.818;2023-04-27T10:45:27;100426.91;;;30.65;31.50
23619;BME280;18207;32.078;34.818;2023-04-27T10:48:00;100423.22;;;30.64;31.67
23619;BME280;18207;32.078;34.818;2023-04-27T10:50:31;100428.91;;;30.64;31.60
23619;BME280;18207;32.078;34.818;2023-04-27T10:53:04;100420.00;;;30.66;31.74
23619;BME280;18207;32.078;34.818;2023-04-27T10:55:35;100422.84;;;30.66;31.93
23619;BME280;18207;32.078;34.818;2023-04-27T10:58:06;100418.78;;;30.67;31.51
23619;BME280;18207;32.078;34.818;2023-04-27T11:00:38;100409.84;;;30.68;31.26
23619;BME280;18207;32.078;34.818;2023-04-27T11:03:15;100405.78;;;30.69;31.59
23619;BME280;18207;32.078;34.818;2023-04-27T11:05:48;100404.56;;;30.70;31.59
23619;BME280;18207;32.078;34.818;2023-04-27T11:08:19;100404.56;;;30.70;31.12
23619;BME280;18207;32.078;34.818;2023-04-27T11:10:50;100402.13;;;30.72;31.56
23619;BME280;18207;32.078;34.818;2023-04-27T11:13:23;100383.91;;;30.73;31.30
23619;BME280;18207;32.078;34.818;2023-04-27T11:15:57;100385.47;;;30.74;31.02
23619;BME280;18207;32.078;34.818;2023-04-27T11:18:31;100383.47;;;30.75;31.15
23619;BME280;18207;32.078;34.818;2023-04-27T11:21:09;100384.25;;;30.75;31.36
23619;BME280;18207;32.078;34.818;2023-04-27T11:23:40;100392.78;;;30.75;31.09
23619;BME280;18207;32.078;34.818;2023-04-27T11:26:11;100391.56;;;30.76;30.98
23619;BME280;18207;32.078;34.818;2023-04-27T11:28:44;100389.53;;;30.77;31.28
23619;BME280;18207;32.078;34.818;2023-04-27T11:31:26;100396.03;;;30.77;31.20
23619;BME280;18207;32.078;34.818;2023-04-27T11:33:59;100394.00;;;30.78;30.64
23619;BME280;18207;32.078;34.818;2023-04-27T11:36:30;100392.38;;;30.77;31.13
23619;BME280;18207;32.078;34.818;2023-04-27T11:39:00;100390.34;;;30.77;30.76
23619;BME280;18207;32.078;34.818;2023-04-27T11:41:34;100388.34;;;30.78;30.97
23619;BME280;18207;32.078;34.818;2023-04-27T11:44:08;100373.31;;;30.77;30.83
23619;BME280;18207;32.078;34.818;2023-04-27T11:46:43;100379.00;;;30.77;30.92
23619;BME280;18207;32.078;34.818;2023-04-27T11:49:16;100381.81;;;30.77;30.77
23619;BME280;18207;32.078;34.818;2023-04-27T11:51:47;100379.00;;;30.77;31.05
23619;BME280;18207;32.078;34.818;2023-04-27T11:54:17;100375.34;;;30.77;31.14
23619;BME280;18207;32.078;34.818;2023-04-27T11:56:48;100378.19;;;30.77;30.52
23619;BME280;18207;32.078;34.818;2023-04-27T11:59:20;100381.03;;;30.77;30.57
23619;BME280;18207;32.078;34.818;2023-04-27T12:01:51;100372.53;;;30.77;30.66
23619;BME280;18207;32.078;34.818;2023-04-27T12:04:22;100373.31;;;30.77;30.53
23619;BME280;18207;32.078;34.818;2023-04-27T12:06:53;100379.81;;;30.78;30.60
23619;BME280;18207;32.078;34.818;2023-04-27T12:09:23;100379.00;;;30.77;30.42
23619;BME280;18207;32.078;34.818;2023-04-27T12:11:53;100379.81;;;30.78;30.54
23619;BME280;18207;32.078;34.818;2023-04-27T12:14:24;100379.81;;;30.78;30.42
23619;BME280;18207;32.078;34.818;2023-04-27T12:16:54;100381.44;;;30.79;31.04
23619;BME280;18207;32.078;34.818;2023-04-27T12:19:26;100378.59;;;30.79;31.11
23619;BME280;18207;32.078;34.818;2023-04-27T12:21:58;100383.44;;;30.78;30.49
23619;BME280;18207;32.078;34.818;2023-04-27T12:24:28;100377.78;;;30.78;30.45
23619;BME280;18207;32.078;34.818;2023-04-27T12:26:59;100368.47;;;30.78;30.88
23619;BME280;18207;32.078;34.818;2023-04-27T12:29:30;100369.69;;;30.77;30.64
23619;BME280;18207;32.078;34.818;2023-04-27T12:32:00;100366.84;;;30.77;30.33
23619;BME280;18207;32.078;34.818;2023-04-27T12:34:33;100366.84;;;30.77;30.54
23619;BME280;18207;32.078;34.818;2023-04-27T12:37:03;100362.38;;;30.76;30.67
23619;BME280;18207;32.078;34.818;2023-04-27T12:39:34;100361.56;;;30.75;30.86
23619;BME280;18207;32.078;34.818;2023-04-27T12:42:03;100371.28;;;30.74;30.47
23619;BME280;18207;32.078;34.818;2023-04-27T12:44:34;100362.78;;;30.74;30.73
23619;BME280;18207;32.078;34.818;2023-04-27T12:47:05;100364.81;;;30.74;30.19
23619;BME280;18207;32.078;34.818;2023-04-27T12:49:36;100360.38;;;30.73;30.70
23619;BME280;18207;32.078;34.818;2023-04-27T12:52:07;100350.66;;;30.70;30.24
23619;BME280;18207;32.078;34.818;2023-04-27T12:54:37;100353.50;;;30.70;30.00
23619;BME280;18207;32.078;34.818;2023-04-27T12:57:07;100350.66;;;30.70;30.18
23619;BME280;18207;32.078;34.818;2023-04-27T12:59:38;100349.03;;;30.69;30.39
23619;BME280;18207;32.078;34.818;2023-04-27T13:02:09;100341.75;;;30.68;30.51
23619;BME280;18207;32.078;34.818;2023-04-27T13:04:41;100342.56;;;30.69;30.69